Time;durP1;ratioP1;P1;durP2;ratioP2;P2;SDS_P1;SDS_P2;PMS_P1;PMS_P2;Temp;Humidity;BMP_temperature;BMP_pressure;BME280_temperature;BME280_humidity;BME280_pressure;Samples;Min_cycle;Max_cycle;Signal;HPM_P1;HPM_P2
2021/08/27 00:02:03;;;;;;;;;;;;;;;24.79;41.87;99654.34;5299379;27;35066;-90
2021/08/27 00:04:31;;;;;;;;;;;;;;;24.67;41.91;99639.50;5281861;27;35626;-90
2021/08/27 00:06:59;;;;;;;;;;;;;;;24.27;41.92;99633.28;5264153;27;33343;-89
2021/08/27 00:09:26;;;;;;;;;;;;;;;24.76;41.54;99621.84;5299459;27;33886;-92
2021/08/27 00:11:54;;;;;;;;;;;;;;;25.20;40.82;99600.81;5264477;27;35330;-89
2021/08/27 00:14:22;;;;;;;;;;;;;;;24.97;41.35;99589.66;5303046;27;35063;-87
2021/08/27 00:16:49;;;;;;;;;;;;;;;25.10;41.04;99586.69;5266784;27;33614;-87
2021/08/27 00:19:18;;;;;;;;;;;;;;;25.04;41.88;99592.59;5266173;27;35159;-88
2021/08/27 00:21:46;;;;;;;;;;;;;;;24.58;43.29;99601.19;5286348;27;34196;-88
2021/08/27 00:24:14;;;;;;;;;;;;;;;24.32;43.27;99609.75;5303687;27;33612;-88
2021/08/27 00:26:42;;;;;;;;;;;;;;;24.06;44.01;99616.59;5265656;27;34342;-89
2021/08/27 00:29:09;;;;;;;;;;;;;;;24.34;42.74;99615.78;5266650;27;33562;-88
2021/08/27 00:31:37;;;;;;;;;;;;;;;24.76;42.65;99613.84;5266382;27;35129;-88
2021/08/27 00:34:05;;;;;;;;;;;;;;;24.83;42.28;99620.25;5266126;27;33978;-88
2021/08/27 00:36:32;;;;;;;;;;;;;;;24.52;42.71;99623.06;5266493;26;34883;-88
2021/08/27 00:39:00;;;;;;;;;;;;;;;24.13;43.57;99625.69;5266213;27;36768;-87
2021/08/27 00:41:28;;;;;;;;;;;;;;;24.49;43.09;99618.00;5323067;27;35665;-89
2021/08/27 00:43:56;;;;;;;;;;;;;;;24.14;44.12;99611.41;5268595;27;34038;-88
2021/08/27 00:46:24;;;;;;;;;;;;;;;24.24;43.92;99600.75;5287895;27;36667;-90
2021/08/27 00:48:53;;;;;;;;;;;;;;;24.14;43.51;99603.41;5266670;27;35668;-89
2021/08/27 00:51:21;;;;;;;;;;;;;;;24.62;43.25;99617.72;5283931;27;34490;-89
2021/08/27 00:53:48;;;;;;;;;;;;;;;23.99;43.70;99603.00;5302011;27;33878;-89
2021/08/27 00:56:16;;;;;;;;;;;;;;;22.56;46.49;99606.28;5266986;27;33742;-90
2021/08/27 00:58:43;;;;;;;;;;;;;;;23.12;44.99;99606.94;5303017;27;35302;-88
2021/08/27 01:01:11;;;;;;;;;;;;;;;23.70;43.59;99608.22;5284967;27;34732;-89
2021/08/27 01:03:40;;;;;;;;;;;;;;;22.21;50.07;99607.38;5266733;27;33583;-89
2021/08/27 01:06:19;;;;;;;;;;;;;;;22.71;49.40;99603.31;5266252;27;35664;-90
2021/08/27 01:08:59;;;;;;;;;;;;;;;23.37;47.46;99613.66;5283896;27;36469;-89
2021/08/27 01:11:31;;;;;;;;;;;;;;;23.74;46.27;99622.91;5285137;27;34249;-88
2021/08/27 01:14:04;;;;;;;;;;;;;;;23.37;46.86;99615.50;5301925;27;36533;-90
2021/08/27 01:16:41;;;;;;;;;;;;;;;24.03;43.71;99627.50;5266102;27;32900;-88
2021/08/27 01:19:28;;;;;;;;;;;;;;;23.64;44.76;99620.22;5302181;27;35201;-87
2021/08/27 01:22:11;;;;;;;;;;;;;;;24.09;44.38;99621.63;5284971;27;34285;-87
2021/08/27 01:24:39;;;;;;;;;;;;;;;23.81;44.01;99613.41;5284171;27;32819;-86
2021/08/27 01:27:07;;;;;;;;;;;;;;;23.65;44.89;99603.28;5320167;27;33574;-88
2021/08/27 01:29:36;;;;;;;;;;;;;;;23.58;44.05;99597.66;5284202;27;34241;-86
2021/08/27 01:32:06;;;;;;;;;;;;;;;23.78;44.62;99598.56;5306980;27;34896;-87
2021/08/27 01:34:38;;;;;;;;;;;;;;;23.48;45.08;99602.09;5270422;27;33700;-87
2021/08/27 01:37:12;;;;;;;;;;;;;;;23.58;44.79;99605.63;5269582;27;33786;-88
2021/08/27 01:39:42;;;;;;;;;;;;;;;24.03;44.48;99600.91;5270789;27;35111;-87
2021/08/27 01:42:13;;;;;;;;;;;;;;;23.95;44.65;99594.44;5305880;27;33131;-88
2021/08/27 01:44:43;;;;;;;;;;;;;;;23.96;44.52;99590.81;5267700;27;34357;-88
2021/08/27 01:47:11;;;;;;;;;;;;;;;23.54;45.67;99588.28;5300752;27;34281;-88
2021/08/27 01:49:38;;;;;;;;;;;;;;;23.95;44.65;99597.09;5282209;27;35572;-88
2021/08/27 01:52:08;;;;;;;;;;;;;;;24.24;43.68;99603.41;5264948;27;34969;-88
2021/08/27 01:54:38;;;;;;;;;;;;;;;23.57;45.59;99593.31;5265293;27;35499;-89
2021/08/27 01:57:06;;;;;;;;;;;;;;;23.74;44.60;99586.50;5264940;27;33599;-89
2021/08/27 01:59:34;;;;;;;;;;;;;;;23.82;43.99;99599.13;5299844;27;35371;-89
2021/08/27 02:02:03;;;;;;;;;;;;;;;23.34;45.56;99601.47;5283964;27;34355;-88
2021/08/27 02:04:36;;;;;;;;;;;;;;;23.90;44.75;99607.31;5319657;27;34024;-88
2021/08/27 02:07:04;;;;;;;;;;;;;;;23.73;44.80;99603.44;5266947;27;33734;-88
2021/08/27 02:09:32;;;;;;;;;;;;;;;23.22;46.02;99607.88;5283879;27;34882;-88
2021/08/27 02:12:00;;;;;;;;;;;;;;;23.56;45.22;99610.28;5284931;27;33556;-88
2021/08/27 02:14:28;;;;;;;;;;;;;;;23.02;46.55;99613.03;5267686;27;35729;-88
2021/08/27 02:16:56;;;;;;;;;;;;;;;23.02;46.94;99613.03;5303106;27;35901;-89
2021/08/27 02:19:24;;;;;;;;;;;;;;;23.44;46.17;99617.50;5266891;27;33321;-88
2021/08/27 02:21:54;;;;;;;;;;;;;;;23.84;45.24;99607.84;5285148;27;34497;-89
2021/08/27 02:24:23;;;;;;;;;;;;;;;23.76;45.15;99599.66;5284457;27;33096;-90
2021/08/27 02:26:51;;;;;;;;;;;;;;;23.40;45.92;99593.94;5268155;27;34874;-89
2021/08/27 02:29:19;;;;;;;;;;;;;;;23.80;44.84;99590.44;5267565;27;33477;-88
2021/08/27 02:31:51;;;;;;;;;;;;;;;23.86;44.71;99587.25;5266435;27;34657;-90
2021/08/27 02:34:20;;;;;;;;;;;;;;;23.58;45.22;99597.66;5320575;27;35768;-89
2021/08/27 02:36:49;;;;;;;;;;;;;;;23.37;46.21;99586.25;5265040;26;34231;-89
2021/08/27 02:39:16;;;;;;;;;;;;;;;23.74;45.40;99573.22;5265793;27;36807;-88
2021/08/27 02:41:44;;;;;;;;;;;;;;;23.67;45.53;99567.59;5284631;27;34972;-88
2021/08/27 02:44:12;;;;;;;;;;;;;;;23.49;46.16;99561.25;5301553;27;32201;-89
2021/08/27 02:46:39;;;;;;;;;;;;;;;23.95;44.87;99565.16;5283492;27;34559;-89
2021/08/27 02:49:07;;;;;;;;;;;;;;;24.16;44.55;99580.19;5266019;27;34922;-88
2021/08/27 02:51:41;;;;;;;;;;;;;;;24.02;44.71;99578.75;5266225;27;34602;-90
2021/08/27 02:54:10;;;;;;;;;;;;;;;24.10;44.43;99572.75;5266991;27;33584;-89
2021/08/27 02:56:37;;;;;;;;;;;;;;;23.84;44.77;99573.25;5284210;27;35570;-89
2021/08/27 02:59:10;;;;;;;;;;;;;;;23.34;45.82;99574.06;5319944;27;35238;-90
2021/08/27 03:01:48;;;;;;;;;;;;;;;23.22;45.96;99567.19;5284320;27;35513;-88
2021/08/27 03:04:35;;;;;;;;;;;;;;;23.22;46.20;99577.81;5301788;27;33447;-89
2021/08/27 03:07:07;;;;;;;;;;;;;;;23.24;45.94;99587.34;5284582;27;33647;-88
2021/08/27 03:09:39;;;;;;;;;;;;;;;23.45;44.88;99594.41;5319281;27;34124;-89
2021/08/27 03:12:07;;;;;;;;;;;;;;;23.44;44.61;99593.56;5283964;27;34432;-88
2021/08/27 03:14:41;;;;;;;;;;;;;;;23.04;45.40;99596.13;5265946;27;35799;-89
2021/08/27 03:17:10;;;;;;;;;;;;;;;22.57;47.09;99594.72;5284052;27;35192;-88
2021/08/27 03:19:57;;;;;;;;;;;;;;;22.39;47.76;99596.22;5301567;27;35248;-88
2021/08/27 03:22:26;;;;;;;;;;;;;;;22.97;45.96;99599.28;5302060;27;33177;-89
2021/08/27 03:24:55;;;;;;;;;;;;;;;22.97;46.14;99612.59;5283435;27;33717;-89
2021/08/27 03:27:24;;;;;;;;;;;;;;;22.65;47.23;99610.81;5301947;27;33794;-88
2021/08/27 03:29:54;;;;;;;;;;;;;;;23.06;46.41;99602.16;5265796;27;35535;-89
2021/08/27 03:32:22;;;;;;;;;;;;;;;23.11;46.48;99599.97;5284276;27;33973;-89
2021/08/27 03:34:50;;;;;;;;;;;;;;;23.44;45.86;99606.88;5320145;27;34713;-89
2021/08/27 03:37:21;;;;;;;;;;;;;;;22.68;47.64;99610.59;5285059;27;34107;-88
2021/08/27 03:39:48;;;;;;;;;;;;;;;22.63;47.53;99625.19;5300962;27;34016;-88
2021/08/27 03:42:17;;;;;;;;;;;;;;;23.02;46.19;99621.00;5300754;27;34259;-88
2021/08/27 03:44:47;;;;;;;;;;;;;;;23.33;45.31;99626.41;5266527;27;33634;-88
2021/08/27 03:47:15;;;;;;;;;;;;;;;21.72;49.04;99632.56;5266226;27;32776;-89
2021/08/27 03:49:43;;;;;;;;;;;;;;;22.49;47.95;99631.66;5266427;27;35229;-88
2021/08/27 03:52:12;;;;;;;;;;;;;;;23.37;45.60;99639.41;5267020;27;33640;-89
2021/08/27 03:54:40;;;;;;;;;;;;;;;23.57;45.14;99638.53;5302371;27;33722;-89
2021/08/27 03:57:08;;;;;;;;;;;;;;;23.65;44.98;99633.41;5266402;27;34988;-89
2021/08/27 03:59:36;;;;;;;;;;;;;;;23.37;45.82;99634.94;5285167;27;35172;-89
2021/08/27 04:02:03;;;;;;;;;;;;;;;23.81;44.83;99637.34;5265951;27;35176;-88
2021/08/27 04:04:32;;;;;;;;;;;;;;;23.48;45.38;99644.63;5284253;27;33395;-87
2021/08/27 04:07:01;;;;;;;;;;;;;;;23.44;45.67;99649.41;5284074;27;33479;-88
2021/08/27 04:09:30;;;;;;;;;;;;;;;23.75;44.93;99651.22;5266370;27;36292;-88
2021/08/27 04:11:58;;;;;;;;;;;;;;;23.98;44.43;99658.00;5265968;27;32572;-89
2021/08/27 04:14:27;;;;;;;;;;;;;;;23.48;45.27;99665.91;5302543;27;34942;-88
2021/08/27 04:16:58;;;;;;;;;;;;;;;23.37;45.22;99666.84;5284192;27;33662;-89
2021/08/27 04:19:26;;;;;;;;;;;;;;;23.53;43.86;99658.37;5265717;27;33418;-89
2021/08/27 04:21:54;;;;;;;;;;;;;;;23.85;43.31;99654.72;5284559;27;34278;-89
2021/08/27 04:24:25;;;;;;;;;;;;;;;23.60;43.97;99658.69;5302440;27;34215;-89
2021/08/27 04:26:52;;;;;;;;;;;;;;;23.67;43.33;99660.69;5266736;27;36614;-88
2021/08/27 04:29:20;;;;;;;;;;;;;;;23.38;43.70;99655.22;5267142;27;37685;-89
2021/08/27 04:31:48;;;;;;;;;;;;;;;23.40;43.61;99655.09;5286383;27;36013;-88
2021/08/27 04:34:16;;;;;;;;;;;;;;;23.37;43.58;99644.72;5285842;27;32279;-89
2021/08/27 04:36:44;;;;;;;;;;;;;;;23.78;42.49;99634.97;5267398;26;33601;-89
2021/08/27 04:39:12;;;;;;;;;;;;;;;23.16;44.08;99627.84;5304189;27;34827;-89
2021/08/27 04:41:40;;;;;;;;;;;;;;;23.41;43.48;99611.59;5267645;27;34789;-89
2021/08/27 04:44:08;;;;;;;;;;;;;;;22.89;44.55;99616.88;5268073;27;33607;-88
2021/08/27 04:46:36;;;;;;;;;;;;;;;22.62;45.75;99621.72;5284904;27;33502;-89
2021/08/27 04:49:04;;;;;;;;;;;;;;;22.78;44.26;99625.75;5284890;27;35995;-88
2021/08/27 04:51:33;;;;;;;;;;;;;;;23.26;43.59;99625.22;5285289;27;35775;-88
2021/08/27 04:54:01;;;;;;;;;;;;;;;23.16;43.71;99621.66;5302240;27;32426;-89
2021/08/27 04:56:29;;;;;;;;;;;;;;;23.21;43.64;99622.13;5283680;27;32956;-88
2021/08/27 04:58:56;;;;;;;;;;;;;;;23.71;42.79;99620.53;5303319;27;34876;-87
2021/08/27 05:01:24;;;;;;;;;;;;;;;23.45;43.50;99628.97;5285578;27;34886;-87
2021/08/27 05:03:52;;;;;;;;;;;;;;;23.57;43.46;99621.72;5266628;27;34279;-88
2021/08/27 05:06:20;;;;;;;;;;;;;;;23.73;42.86;99622.06;5284202;27;34959;-89
2021/08/27 05:08:48;;;;;;;;;;;;;;;23.59;43.14;99628.59;5303377;27;34428;-90
2021/08/27 05:11:16;;;;;;;;;;;;;;;23.60;43.26;99626.78;5320797;27;34762;-88
2021/08/27 05:13:44;;;;;;;;;;;;;;;23.76;42.98;99620.94;5321587;27;34418;-89
2021/08/27 05:16:11;;;;;;;;;;;;;;;23.39;43.78;99633.00;5267139;27;35227;-85
2021/08/27 05:18:39;;;;;;;;;;;;;;;23.19;44.54;99629.41;5266512;27;34617;-88
2021/08/27 05:21:07;;;;;;;;;;;;;;;23.07;44.31;99641.03;5266552;27;33492;-87
2021/08/27 05:23:35;;;;;;;;;;;;;;;23.23;44.07;99648.56;5266852;27;33694;-86
2021/08/27 05:26:04;;;;;;;;;;;;;;;23.57;43.28;99645.66;5283473;27;33346;-87
2021/08/27 05:28:31;;;;;;;;;;;;;;;22.94;44.58;99655.34;5287502;27;35542;-88
2021/08/27 05:31:01;;;;;;;;;;;;;;;23.00;44.48;99644.22;5302785;27;34468;-86
2021/08/27 05:33:29;;;;;;;;;;;;;;;22.52;45.84;99636.72;5285716;27;33939;-86
2021/08/27 05:35:57;;;;;;;;;;;;;;;22.90;44.67;99640.66;5284841;27;35253;-85
2021/08/27 05:38:26;;;;;;;;;;;;;;;22.51;45.24;99656.28;5284240;27;33175;-87
2021/08/27 05:40:54;;;;;;;;;;;;;;;22.65;45.23;99661.28;5301134;27;33915;-86
2021/08/27 05:43:27;;;;;;;;;;;;;;;22.19;45.88;99657.91;5284224;27;33568;-86
2021/08/27 05:45:55;;;;;;;;;;;;;;;23.12;44.11;99652.09;5322712;27;34330;-87
2021/08/27 05:48:22;;;;;;;;;;;;;;;22.95;44.40;99651.72;5283596;27;34639;-86
2021/08/27 05:50:50;;;;;;;;;;;;;;;22.85;44.52;99657.00;5266625;27;33002;-88
2021/08/27 05:53:17;;;;;;;;;;;;;;;22.75;45.01;99656.06;5284475;27;33638;-86
2021/08/27 05:55:45;;;;;;;;;;;;;;;23.11;43.86;99651.28;5283716;27;35152;-85
2021/08/27 05:58:13;;;;;;;;;;;;;;;22.51;45.34;99648.34;5267667;27;34330;-87
2021/08/27 06:00:41;;;;;;;;;;;;;;;23.20;43.69;99646.19;5323688;27;34793;-88
2021/08/27 06:03:10;;;;;;;;;;;;;;;23.26;43.58;99648.31;5322599;27;32027;-86
2021/08/27 06:05:38;;;;;;;;;;;;;;;23.14;43.82;99640.41;5307215;27;34699;-86
2021/08/27 06:08:06;;;;;;;;;;;;;;;23.68;42.53;99642.94;5270871;27;35053;-87
2021/08/27 06:10:34;;;;;;;;;;;;;;;23.34;43.46;99645.84;5286653;27;34176;-86
2021/08/27 06:13:02;;;;;;;;;;;;;;;23.84;42.31;99645.06;5286630;27;34504;-85
2021/08/27 06:15:30;;;;;;;;;;;;;;;23.49;42.72;99660.47;5285284;27;37095;-88
2021/08/27 06:17:58;;;;;;;;;;;;;;;23.85;42.31;99663.56;5267576;27;33952;-89
2021/08/27 06:20:26;;;;;;;;;;;;;;;24.16;41.69;99666.19;5284245;27;34630;-86
2021/08/27 06:22:54;;;;;;;;;;;;;;;23.94;41.92;99664.56;5266317;27;35373;-89
2021/08/27 06:25:22;;;;;;;;;;;;;;;24.05;41.97;99662.78;5301575;27;34055;-87
2021/08/27 06:27:50;;;;;;;;;;;;;;;24.11;41.64;99664.91;5301027;27;34714;-86
2021/08/27 06:30:18;;;;;;;;;;;;;;;24.14;41.68;99668.13;5283559;27;34153;-87
2021/08/27 06:32:45;;;;;;;;;;;;;;;23.94;42.00;99672.56;5266558;27;32781;-87
2021/08/27 06:35:13;;;;;;;;;;;;;;;23.72;42.68;99670.94;5284210;27;34426;-87
2021/08/27 06:40:27;;;;;;;;;;;;;;;23.92;42.06;99687.84;5286875;27;35009;-87
2021/08/27 06:42:56;;;;;;;;;;;;;;;23.65;42.96;99689.25;5301868;27;33668;-88
2021/08/27 06:45:23;;;;;;;;;;;;;;;24.11;41.82;99684.38;5283136;27;35802;-87
2021/08/27 06:47:51;;;;;;;;;;;;;;;23.44;43.12;99691.94;5282665;27;36438;-88
2021/08/27 06:50:18;;;;;;;;;;;;;;;24.28;41.30;99696.19;5284338;27;34389;-84
2021/08/27 06:52:46;;;;;;;;;;;;;;;24.23;41.40;99693.09;5266449;27;32461;-87
2021/08/27 06:55:14;;;;;;;;;;;;;;;23.94;42.02;99690.34;5285158;27;34077;-87
2021/08/27 06:57:42;;;;;;;;;;;;;;;24.36;41.11;99687.53;5269345;27;33585;-88
2021/08/27 07:00:10;;;;;;;;;;;;;;;24.43;41.07;99691.31;5265969;27;34903;-87
2021/08/27 07:02:39;;;;;;;;;;;;;;;24.68;40.51;99692.62;5320241;27;33767;-87
2021/08/27 07:05:08;;;;;;;;;;;;;;;23.86;42.27;99696.31;5284051;27;35328;-86
2021/08/27 07:07:36;;;;;;;;;;;;;;;24.24;41.46;99692.12;5301301;27;35325;-87
2021/08/27 07:10:04;;;;;;;;;;;;;;;24.46;41.06;99695.50;5283790;27;32979;-87
2021/08/27 07:12:32;;;;;;;;;;;;;;;24.61;40.80;99694.13;5265509;27;32638;-88
2021/08/27 07:15:00;;;;;;;;;;;;;;;24.54;40.89;99693.00;5283566;27;33402;-87
2021/08/27 07:17:28;;;;;;;;;;;;;;;24.40;41.06;99699.56;5264791;27;33998;-89
2021/08/27 07:19:55;;;;;;;;;;;;;;;24.20;41.70;99708.47;5282960;27;34556;-87
2021/08/27 07:22:23;;;;;;;;;;;;;;;24.01;42.32;99696.81;5300501;27;33677;-87
2021/08/27 07:24:51;;;;;;;;;;;;;;;24.13;42.34;99702.88;5283038;27;35121;-87
2021/08/27 07:27:19;;;;;;;;;;;;;;;24.24;42.47;99707.22;5283435;27;33061;-90
2021/08/27 07:29:47;;;;;;;;;;;;;;;24.62;41.42;99705.63;5282737;27;34365;-88
2021/08/27 07:32:14;;;;;;;;;;;;;;;24.68;41.10;99713.09;5283422;27;34173;-88
2021/08/27 07:34:44;;;;;;;;;;;;;;;24.90;40.29;99703.13;5265163;27;32700;-88
2021/08/27 07:37:12;;;;;;;;;;;;;;;23.93;42.57;99702.81;5264793;27;35335;-88
2021/08/27 07:39:40;;;;;;;;;;;;;;;24.46;41.71;99701.69;5282522;27;36887;-87
2021/08/27 07:42:08;;;;;;;;;;;;;;;24.61;41.02;99702.13;5263430;27;932642;-88
2021/08/27 07:44:37;;;;;;;;;;;;;;;24.78;40.46;99694.44;5264733;27;34609;-90
2021/08/27 07:47:05;;;;;;;;;;;;;;;24.79;39.92;99702.28;5284947;27;35007;-88
2021/08/27 07:49:33;;;;;;;;;;;;;;;24.75;39.68;99695.56;5300389;27;33511;-89
2021/08/27 07:52:02;;;;;;;;;;;;;;;25.10;39.03;99699.50;5301219;27;34145;-86
2021/08/27 07:54:30;;;;;;;;;;;;;;;25.31;38.52;99696.63;5282955;27;32872;-89
2021/08/27 07:56:58;;;;;;;;;;;;;;;24.75;39.55;99700.06;5282631;27;33682;-89
2021/08/27 07:59:25;;;;;;;;;;;;;;;25.24;38.82;99700.84;5282395;27;33649;-88
2021/08/27 08:01:55;;;;;;;;;;;;;;;25.25;38.23;99710.53;5264965;27;33926;-90
2021/08/27 08:04:24;;;;;;;;;;;;;;;25.34;37.90;99720.38;5319002;27;33387;-88
2021/08/27 08:06:52;;;;;;;;;;;;;;;24.99;38.74;99718.28;5317949;27;34624;-89
2021/08/27 08:09:20;;;;;;;;;;;;;;;25.63;37.48;99710.59;5317549;27;34678;-88
2021/08/27 08:11:49;;;;;;;;;;;;;;;25.82;36.78;99702.53;5300763;27;33686;-88
2021/08/27 08:14:16;;;;;;;;;;;;;;;26.09;36.65;99714.25;5300047;27;34639;-88
2021/08/27 08:16:44;;;;;;;;;;;;;;;25.92;35.94;99709.66;5282450;27;33827;-88
2021/08/27 08:19:12;;;;;;;;;;;;;;;25.75;36.12;99724.59;5303239;27;32990;-87
2021/08/27 08:21:41;;;;;;;;;;;;;;;26.38;34.78;99718.56;5322927;27;32450;-89
2021/08/27 08:24:09;;;;;;;;;;;;;;;26.05;35.71;99722.69;5284933;27;33713;-87
2021/08/27 08:26:37;;;;;;;;;;;;;;;25.97;35.82;99721.56;5301118;27;33509;-88
2021/08/27 08:29:07;;;;;;;;;;;;;;;25.96;35.82;99725.22;5283636;27;34716;-88
2021/08/27 08:31:34;;;;;;;;;;;;;;;25.63;36.43;99719.47;5300062;27;34080;-88
2021/08/27 08:34:02;;;;;;;;;;;;;;;25.20;37.84;99725.28;5301131;27;34381;-89
2021/08/27 08:36:30;;;;;;;;;;;;;;;25.43;37.05;99728.50;5266316;26;34270;-88
2021/08/27 08:38:58;;;;;;;;;;;;;;;25.93;35.21;99733.53;5265612;27;34507;-89
2021/08/27 08:41:26;;;;;;;;;;;;;;;26.10;35.20;99731.94;5265942;27;32808;-87
2021/08/27 08:43:54;;;;;;;;;;;;;;;25.66;35.83;99732.50;5301656;27;34137;-89
2021/08/27 08:46:23;;;;;;;;;;;;;;;25.98;35.08;99736.59;5284593;27;34740;-90
2021/08/27 08:48:51;;;;;;;;;;;;;;;26.08;34.33;99741.91;5320177;27;33519;-88
2021/08/27 08:51:23;;;;;;;;;;;;;;;26.10;34.48;99731.09;5284121;27;33568;-91
2021/08/27 08:54:14;;;;;;;;;;;;;;;26.10;34.29;99749.78;5290733;27;35576;-89
2021/08/27 08:56:42;;;;;;;;;;;;;;;26.18;33.88;99739.22;5284778;27;34243;-90
2021/08/27 08:59:15;;;;;;;;;;;;;;;25.45;35.37;99754.03;5303068;27;33539;-89
2021/08/27 09:01:46;;;;;;;;;;;;;;;25.42;35.04;99741.00;5284186;27;32985;-90
2021/08/27 09:04:18;;;;;;;;;;;;;;;25.76;34.59;99744.97;5266966;27;35195;-88
2021/08/27 09:06:45;;;;;;;;;;;;;;;25.91;34.30;99748.00;5301308;27;33931;-89
2021/08/27 09:09:25;;;;;;;;;;;;;;;25.66;34.61;99751.19;5302397;27;34292;-87
2021/08/27 09:11:53;;;;;;;;;;;;;;;25.82;34.54;99758.56;5265782;27;34383;-87
2021/08/27 09:14:26;;;;;;;;;;;;;;;26.35;33.55;99750.91;5303522;27;34444;-88
2021/08/27 09:17:01;;;;;;;;;;;;;;;25.61;34.53;99755.28;5266745;27;34749;-89
2021/08/27 09:19:52;;;;;;;;;;;;;;;25.84;34.01;99753.09;5319029;27;34162;-88
2021/08/27 09:22:20;;;;;;;;;;;;;;;25.28;35.26;99752.91;5284163;27;33672;-88
2021/08/27 09:25:05;;;;;;;;;;;;;;;25.66;34.38;99747.66;5286613;27;34112;-89
2021/08/27 09:27:35;;;;;;;;;;;;;;;26.00;34.21;99753.28;5288341;27;34909;-89
2021/08/27 09:30:10;;;;;;;;;;;;;;;25.89;34.46;99756.16;5270528;27;33297;-88
2021/08/27 09:32:38;;;;;;;;;;;;;;;25.89;34.72;99760.66;5269474;27;32920;-88
2021/08/27 09:35:07;;;;;;;;;;;;;;;26.34;32.26;99754.59;5267061;27;33413;-89
2021/08/27 09:37:39;;;;;;;;;;;;;;;26.22;32.55;99764.63;5284782;27;34440;-89
2021/08/27 09:40:11;;;;;;;;;;;;;;;26.09;32.81;99762.28;5286688;27;33526;-88
2021/08/27 09:42:40;;;;;;;;;;;;;;;26.34;32.79;99754.59;5286076;27;33512;-88
2021/08/27 09:45:08;;;;;;;;;;;;;;;26.49;32.93;99762.94;5266854;27;33857;-89
2021/08/27 09:47:36;;;;;;;;;;;;;;;25.72;34.83;99759.59;5266908;27;34646;-89
2021/08/27 09:50:20;;;;;;;;;;;;;;;25.97;34.45;99764.28;5283730;27;34325;-89
2021/08/27 09:52:55;;;;;;;;;;;;;;;25.54;35.44;99768.34;5266075;27;32888;-87
2021/08/27 09:55:24;;;;;;;;;;;;;;;26.26;33.93;99759.81;5267136;27;33156;-87
2021/08/27 09:58:00;;;;;;;;;;;;;;;26.46;33.29;99757.91;5302595;27;34529;-90
2021/08/27 10:00:29;;;;;;;;;;;;;;;26.37;32.63;99759.63;5266147;27;34004;-87
2021/08/27 10:03:02;;;;;;;;;;;;;;;26.62;32.08;99750.03;5266900;27;34298;-85
2021/08/27 10:05:35;;;;;;;;;;;;;;;26.66;32.25;99755.94;5268100;27;34513;-88
2021/08/27 10:08:36;;;;;;;;;;;;;;;26.77;32.22;99760.25;5285302;27;33702;-88
2021/08/27 10:11:16;;;;;;;;;;;;;;;26.71;32.50;99748.34;5298634;27;34339;-89
2021/08/27 10:13:45;;;;;;;;;;;;;;;26.64;32.85;99758.72;5287201;27;32685;-90
2021/08/27 10:16:13;;;;;;;;;;;;;;;27.10;31.30;99756.03;5268292;27;33280;-90
2021/08/27 10:18:42;;;;;;;;;;;;;;;26.16;31.65;99767.88;5303995;27;33612;-90
2021/08/27 10:21:17;;;;;;;;;;;;;;;26.49;31.41;99758.41;5303012;27;34601;-88
2021/08/27 10:23:45;;;;;;;;;;;;;;;26.16;32.00;99766.03;5301886;27;33513;-88
2021/08/27 10:26:13;;;;;;;;;;;;;;;26.27;31.75;99762.34;5266776;27;33666;-88
2021/08/27 10:28:41;;;;;;;;;;;;;;;26.30;31.62;99758.56;5303702;27;34297;-86
2021/08/27 10:31:09;;;;;;;;;;;;;;;26.70;31.15;99761.78;5302217;27;33653;-89
2021/08/27 10:33:40;;;;;;;;;;;;;;;26.20;32.20;99747.91;5284400;27;33412;-90
2021/08/27 10:36:31;;;;;;;;;;;;;;;26.52;31.70;99748.44;5283789;27;34576;-88
2021/08/27 10:39:00;;;;;;;;;;;;;;;26.57;31.57;99746.16;5283773;27;34311;-85
2021/08/27 10:41:36;;;;;;;;;;;;;;;26.58;31.55;99763.84;5267056;27;34628;-87
2021/08/27 10:44:13;;;;;;;;;;;;;;;26.44;31.76;99747.34;5311041;27;33512;-88
2021/08/27 10:47:04;;;;;;;;;;;;;;;25.81;32.47;99754.22;5279317;27;34033;-89
2021/08/27 10:49:44;;;;;;;;;;;;;;;26.66;30.90;99759.44;5273757;27;33677;-87
2021/08/27 10:52:21;;;;;;;;;;;;;;;26.67;31.04;99761.12;5288719;27;34213;-85
2021/08/27 10:55:02;;;;;;;;;;;;;;;26.66;30.80;99763.94;5284896;27;33630;-89
2021/08/27 10:57:39;;;;;;;;;;;;;;;26.90;30.58;99770.53;5284477;27;33596;-89
2021/08/27 11:00:07;;;;;;;;;;;;;;;26.86;30.66;99764.69;5267647;27;34705;-90
2021/08/27 11:02:49;;;;;;;;;;;;;;;26.73;30.78;99765.03;5303997;27;33924;-88
2021/08/27 11:05:32;;;;;;;;;;;;;;;26.62;30.55;99773.25;5268156;27;33425;-89
2021/08/27 11:08:11;;;;;;;;;;;;;;;26.93;30.33;99776.44;5269238;27;34787;-86
2021/08/27 11:10:41;;;;;;;;;;;;;;;26.32;31.45;99773.41;5324026;27;34199;-87
2021/08/27 11:13:10;;;;;;;;;;;;;;;26.77;31.19;99776.28;5286129;27;34243;-88
2021/08/27 11:15:37;;;;;;;;;;;;;;;26.53;30.46;99774.16;5303838;27;32559;-88
2021/08/27 11:18:15;;;;;;;;;;;;;;;27.26;29.65;99778.56;5321792;27;34416;-90
2021/08/27 11:20:43;;;;;;;;;;;;;;;27.66;28.74;99772.69;5302574;27;33925;-88
2021/08/27 11:23:11;;;;;;;;;;;;;;;27.10;29.33;99766.72;5303189;27;34371;-89
2021/08/27 11:25:43;;;;;;;;;;;;;;;27.31;28.89;99760.22;5266927;27;33656;-89
2021/08/27 11:28:14;;;;;;;;;;;;;;;26.73;30.04;99762.38;5284740;27;34480;-90
2021/08/27 11:31:02;;;;;;;;;;;;;;;26.80;30.01;99750.09;5286016;27;35135;-89
2021/08/27 11:33:45;;;;;;;;;;;;;;;26.87;30.17;99753.00;5284727;27;34307;-89
2021/08/27 11:36:13;;;;;;;;;;;;;;;26.63;29.89;99754.41;5304715;27;33758;-89
2021/08/27 11:38:41;;;;;;;;;;;;;;;26.56;29.83;99745.28;5284896;27;35255;-89
2021/08/27 11:41:10;;;;;;;;;;;;;;;26.74;29.54;99742.69;5285144;27;33687;-90
2021/08/27 11:43:44;;;;;;;;;;;;;;;26.83;29.09;99749.78;5302887;27;34745;-90
2021/08/27 11:46:17;;;;;;;;;;;;;;;26.27;29.80;99746.34;5285343;27;33799;-88
2021/08/27 11:48:49;;;;;;;;;;;;;;;25.15;31.36;99752.34;5284527;27;34312;-87
2021/08/27 11:51:17;;;;;;;;;;;;;;;25.89;30.13;99742.00;5284426;27;35306;-90
2021/08/27 11:53:45;;;;;;;;;;;;;;;27.13;28.41;99750.37;5302405;27;34447;-89
2021/08/27 11:56:20;;;;;;;;;;;;;;;26.36;29.57;99741.09;5284172;27;32945;-88
2021/08/27 11:58:48;;;;;;;;;;;;;;;26.63;29.10;99751.72;5284539;27;34182;-89
2021/08/27 12:01:46;;;;;;;;;;;;;;;27.25;28.20;99760.84;5266632;27;33563;-88
2021/08/27 12:04:30;;;;;;;;;;;;;;;27.25;28.35;99761.66;5301509;27;33154;-88
2021/08/27 12:07:05;;;;;;;;;;;;;;;27.13;28.67;99760.22;5267220;27;32932;-89
2021/08/27 12:09:32;;;;;;;;;;;;;;;27.67;27.90;99760.16;5285843;27;34556;-88
2021/08/27 12:12:01;;;;;;;;;;;;;;;27.69;27.53;99754.66;5304265;27;33683;-88
2021/08/27 12:14:49;;;;;;;;;;;;;;;27.58;27.41;99759.25;5267494;27;33346;-89
2021/08/27 12:17:18;;;;;;;;;;;;;;;28.14;26.97;99750.88;5323683;27;33428;-88
2021/08/27 12:19:46;;;;;;;;;;;;;;;27.83;27.51;99757.56;5302107;27;33427;-89
2021/08/27 12:22:16;;;;;;;;;;;;;;;28.30;27.20;99747.41;5266858;27;34047;-87
2021/08/27 12:24:45;;;;;;;;;;;;;;;28.66;26.76;99752.56;5266773;27;33506;-88
2021/08/27 12:27:14;;;;;;;;;;;;;;;29.30;25.50;99744.75;5284233;27;34723;-89
2021/08/27 12:29:43;;;;;;;;;;;;;;;28.78;26.01;99758.44;5284828;27;34096;-89
2021/08/27 12:32:14;;;;;;;;;;;;;;;28.92;25.66;99749.75;5285822;27;34760;-90
2021/08/27 12:34:48;;;;;;;;;;;;;;;28.63;26.07;99753.69;5266561;27;34426;-89
2021/08/27 12:37:16;;;;;;;;;;;;;;;29.08;24.74;99745.38;5302573;27;32486;-88
2021/08/27 12:39:44;;;;;;;;;;;;;;;28.61;25.23;99741.47;5302936;27;34908;-88
2021/08/27 12:42:13;;;;;;;;;;;;;;;28.61;24.81;99747.69;5320390;27;35433;-87
2021/08/27 12:45:00;;;;;;;;;;;;;;;28.25;25.30;99739.03;5320139;27;34177;-89
2021/08/27 12:47:48;;;;;;;;;;;;;;;27.99;25.77;99739.91;5285030;27;33495;-89
2021/08/27 12:50:16;;;;;;;;;;;;;;;28.60;24.50;99727.25;5301582;27;33654;-86
2021/08/27 12:52:59;;;;;;;;;;;;;;;29.13;23.90;99732.31;5283949;27;33240;-88
2021/08/27 12:55:31;;;;;;;;;;;;;;;28.60;24.34;99731.75;5300866;27;34592;-89
2021/08/27 12:57:59;;;;;;;;;;;;;;;28.63;24.07;99740.28;5301696;27;33911;-90
2021/08/27 13:00:28;;;;;;;;;;;;;;;28.78;24.33;99751.22;5285629;27;34773;-87
2021/08/27 13:03:06;;;;;;;;;;;;;;;28.46;24.62;99742.09;5285542;27;36058;-86
2021/08/27 13:05:39;;;;;;;;;;;;;;;28.31;25.05;99733.03;5285199;27;33351;-89
2021/08/27 13:08:08;;;;;;;;;;;;;;;28.28;25.12;99746.72;5321385;27;34266;-88